Pearl River, New York
Current Conditions -  °F | °C
As of 1:51 AM on Friday 28 Nov 2014 (Local Time) from KTEB Reporting Station
Clear Clear  
Wind Chill: 23°   Ceiling: Unl
Heat Index: 31°   Visibility: 10mi
Dew Point: 22°   Wind: 8mph
Humidity: 69%   Direction: 300°WNW
Pressure: 30.08"   Gusts: NA
Location:  41.06°N, 74.02°W
Report Text: KTEB 280651Z 30007KT 10SM CLR M01/M06 A3008 RMK AO2 SLP184 T10061056 $
Loading
Personal Weather Stations






























Interactive Weather Map New forecast layout! Learn more

10-Day Weather Forecast

Advertisements
Track Severe Weather on mobile